Aviation Digital Data Service (ADDS)

Output produced by METARs form (1559 UTC 16 April 2014)
found at http://aviationweather.gov/adds/metars/
 
KBTV 161135Z 1612/1712 32012G20KT P6SM BKN035 
     FM161700 33010KT P6SM SKC 
     FM162300 VRB06KT P6SM SKC